sensor_id;sensor_type;location;lat;lon;timestamp;P1;durP1;ratioP1;P2;durP2;ratioP2
1935;SDS011;969;49.892;10.896;2023-07-29T00:00:48;1.63;;;1.53;;
1935;SDS011;969;49.892;10.896;2023-07-29T00:03:14;1.50;;;1.20;;
1935;SDS011;969;49.892;10.896;2023-07-29T00:05:40;1.70;;;1.20;;
1935;SDS011;969;49.892;10.896;2023-07-29T00:08:06;1.67;;;1.30;;
1935;SDS011;969;49.892;10.896;2023-07-29T00:10:32;1.33;;;0.90;;
1935;SDS011;969;49.892;10.896;2023-07-29T00:13:01;1.40;;;1.00;;
1935;SDS011;969;49.892;10.896;2023-07-29T00:15:27;2.80;;;1.40;;
1935;SDS011;969;49.892;10.896;2023-07-29T00:17:53;1.20;;;1.10;;
1935;SDS011;969;49.892;10.896;2023-07-29T00:20:18;1.33;;;1.10;;
1935;SDS011;969;49.892;10.896;2023-07-29T00:22:44;1.63;;;1.30;;
1935;SDS011;969;49.892;10.896;2023-07-29T00:25:09;1.50;;;1.20;;
1935;SDS011;969;49.892;10.896;2023-07-29T00:27:35;1.40;;;1.10;;
1935;SDS011;969;49.892;10.896;2023-07-29T00:30:00;1.30;;;1.00;;
1935;SDS011;969;49.892;10.896;2023-07-29T00:32:29;1.30;;;1.20;;
1935;SDS011;969;49.892;10.896;2023-07-29T00:34:55;1.60;;;1.30;;
1935;SDS011;969;49.892;10.896;2023-07-29T00:37:21;1.70;;;1.20;;
1935;SDS011;969;49.892;10.896;2023-07-29T00:39:47;1.20;;;1.10;;
1935;SDS011;969;49.892;10.896;2023-07-29T00:42:12;1.40;;;1.23;;
1935;SDS011;969;49.892;10.896;2023-07-29T00:44:38;1.97;;;1.30;;
1935;SDS011;969;49.892;10.896;2023-07-29T00:47:04;1.70;;;1.30;;
1935;SDS011;969;49.892;10.896;2023-07-29T00:49:32;1.20;;;1.10;;
1935;SDS011;969;49.892;10.896;2023-07-29T00:51:57;1.40;;;1.30;;
1935;SDS011;969;49.892;10.896;2023-07-29T00:54:23;1.90;;;1.30;;
1935;SDS011;969;49.892;10.896;2023-07-29T00:56:49;1.30;;;1.10;;
1935;SDS011;969;49.892;10.896;2023-07-29T00:59:15;1.17;;;1.00;;
1935;SDS011;969;49.892;10.896;2023-07-29T01:01:41;1.40;;;1.23;;
1935;SDS011;969;49.892;10.896;2023-07-29T01:04:07;1.43;;;1.17;;
1935;SDS011;969;49.892;10.896;2023-07-29T01:06:46;1.30;;;1.10;;
1935;SDS011;969;49.892;10.896;2023-07-29T01:12:17;1.40;;;1.23;;
1935;SDS011;969;49.892;10.896;2023-07-29T01:18:02;1.80;;;1.20;;
1935;SDS011;969;49.892;10.896;2023-07-29T01:20:32;1.87;;;1.20;;
1935;SDS011;969;49.892;10.896;2023-07-29T01:23:01;1.37;;;1.27;;
1935;SDS011;969;49.892;10.896;2023-07-29T01:25:26;1.30;;;1.20;;
1935;SDS011;969;49.892;10.896;2023-07-29T01:27:52;1.53;;;1.40;;
1935;SDS011;969;49.892;10.896;2023-07-29T01:30:18;1.73;;;1.33;;
1935;SDS011;969;49.892;10.896;2023-07-29T01:32:57;1.20;;;1.10;;
1935;SDS011;969;49.892;10.896;2023-07-29T01:35:33;1.40;;;1.17;;
1935;SDS011;969;49.892;10.896;2023-07-29T01:38:19;1.33;;;1.00;;
1935;SDS011;969;49.892;10.896;2023-07-29T01:40:49;1.53;;;1.43;;
1935;SDS011;969;49.892;10.896;2023-07-29T01:43:17;1.57;;;1.40;;
1935;SDS011;969;49.892;10.896;2023-07-29T01:45:48;1.37;;;1.27;;
1935;SDS011;969;49.892;10.896;2023-07-29T01:48:14;1.70;;;1.40;;
1935;SDS011;969;49.892;10.896;2023-07-29T01:50:39;1.30;;;1.20;;
1935;SDS011;969;49.892;10.896;2023-07-29T01:53:05;1.80;;;1.60;;
1935;SDS011;969;49.892;10.896;2023-07-29T01:55:30;1.70;;;1.60;;
1935;SDS011;969;49.892;10.896;2023-07-29T01:57:56;1.30;;;1.00;;
1935;SDS011;969;49.892;10.896;2023-07-29T02:00:23;1.60;;;1.47;;
1935;SDS011;969;49.892;10.896;2023-07-29T02:02:48;1.30;;;1.10;;
1935;SDS011;969;49.892;10.896;2023-07-29T02:05:14;1.57;;;1.30;;
1935;SDS011;969;49.892;10.896;2023-07-29T02:07:40;2.43;;;1.50;;
1935;SDS011;969;49.892;10.896;2023-07-29T02:10:05;1.40;;;1.20;;
1935;SDS011;969;49.892;10.896;2023-07-29T02:12:32;2.10;;;1.13;;
1935;SDS011;969;49.892;10.896;2023-07-29T02:14:58;1.40;;;1.20;;
1935;SDS011;969;49.892;10.896;2023-07-29T02:17:23;1.70;;;1.10;;
1935;SDS011;969;49.892;10.896;2023-07-29T02:19:49;2.67;;;1.70;;
1935;SDS011;969;49.892;10.896;2023-07-29T02:22:16;1.80;;;1.37;;
1935;SDS011;969;49.892;10.896;2023-07-29T02:24:43;2.60;;;1.37;;
1935;SDS011;969;49.892;10.896;2023-07-29T02:27:09;1.40;;;1.10;;
1935;SDS011;969;49.892;10.896;2023-07-29T02:29:34;1.60;;;1.50;;
1935;SDS011;969;49.892;10.896;2023-07-29T02:32:00;1.43;;;1.30;;
1935;SDS011;969;49.892;10.896;2023-07-29T02:34:26;1.57;;;1.27;;
1935;SDS011;969;49.892;10.896;2023-07-29T02:36:51;1.37;;;1.27;;
1935;SDS011;969;49.892;10.896;2023-07-29T02:39:17;2.10;;;1.70;;
1935;SDS011;969;49.892;10.896;2023-07-29T02:41:42;1.50;;;1.40;;
1935;SDS011;969;49.892;10.896;2023-07-29T02:44:08;1.37;;;1.20;;
1935;SDS011;969;49.892;10.896;2023-07-29T02:46:33;1.30;;;1.20;;
1935;SDS011;969;49.892;10.896;2023-07-29T02:48:59;2.90;;;1.60;;
1935;SDS011;969;49.892;10.896;2023-07-29T02:51:26;2.00;;;1.30;;
1935;SDS011;969;49.892;10.896;2023-07-29T02:53:52;1.57;;;1.47;;
1935;SDS011;969;49.892;10.896;2023-07-29T02:56:18;1.60;;;1.33;;
1935;SDS011;969;49.892;10.896;2023-07-29T02:58:43;2.00;;;1.70;;
1935;SDS011;969;49.892;10.896;2023-07-29T03:01:09;1.80;;;1.40;;
1935;SDS011;969;49.892;10.896;2023-07-29T03:03:35;2.07;;;1.87;;
1935;SDS011;969;49.892;10.896;2023-07-29T03:06:04;2.47;;;1.80;;
1935;SDS011;969;49.892;10.896;2023-07-29T03:08:34;1.70;;;1.53;;
1935;SDS011;969;49.892;10.896;2023-07-29T03:11:07;1.50;;;1.37;;
1935;SDS011;969;49.892;10.896;2023-07-29T03:13:36;2.90;;;1.27;;
1935;SDS011;969;49.892;10.896;2023-07-29T03:18:31;1.90;;;1.53;;
1935;SDS011;969;49.892;10.896;2023-07-29T03:20:57;1.63;;;1.37;;
1935;SDS011;969;49.892;10.896;2023-07-29T03:23:22;2.37;;;1.50;;
1935;SDS011;969;49.892;10.896;2023-07-29T03:25:48;2.37;;;1.23;;
1935;SDS011;969;49.892;10.896;2023-07-29T03:28:16;1.30;;;1.20;;
1935;SDS011;969;49.892;10.896;2023-07-29T03:30:42;1.53;;;1.40;;
1935;SDS011;969;49.892;10.896;2023-07-29T03:33:08;1.80;;;1.50;;
1935;SDS011;969;49.892;10.896;2023-07-29T03:35:34;1.80;;;1.70;;
1935;SDS011;969;49.892;10.896;2023-07-29T03:37:59;1.73;;;1.47;;
1935;SDS011;969;49.892;10.896;2023-07-29T03:40:25;1.67;;;1.57;;
1935;SDS011;969;49.892;10.896;2023-07-29T03:42:50;1.40;;;1.23;;
1935;SDS011;969;49.892;10.896;2023-07-29T03:45:16;1.67;;;1.57;;
1935;SDS011;969;49.892;10.896;2023-07-29T03:47:41;1.77;;;1.60;;
1935;SDS011;969;49.892;10.896;2023-07-29T03:50:07;2.83;;;1.53;;
1935;SDS011;969;49.892;10.896;2023-07-29T03:52:33;1.73;;;1.63;;
1935;SDS011;969;49.892;10.896;2023-07-29T03:54:59;1.57;;;1.40;;
1935;SDS011;969;49.892;10.896;2023-07-29T03:57:24;1.90;;;1.30;;
1935;SDS011;969;49.892;10.896;2023-07-29T03:59:50;1.77;;;1.40;;
1935;SDS011;969;49.892;10.896;2023-07-29T04:02:16;2.47;;;1.70;;
1935;SDS011;969;49.892;10.896;2023-07-29T04:04:41;1.80;;;1.40;;
1935;SDS011;969;49.892;10.896;2023-07-29T04:07:09;1.40;;;1.30;;
1935;SDS011;969;49.892;10.896;2023-07-29T04:09:34;1.60;;;1.33;;
1935;SDS011;969;49.892;10.896;2023-07-29T04:12:00;1.43;;;1.33;;
1935;SDS011;969;49.892;10.896;2023-07-29T04:14:26;3.00;;;1.80;;
1935;SDS011;969;49.892;10.896;2023-07-29T04:16:51;2.00;;;1.80;;
1935;SDS011;969;49.892;10.896;2023-07-29T04:19:17;1.50;;;1.20;;
1935;SDS011;969;49.892;10.896;2023-07-29T04:21:42;1.93;;;1.53;;
1935;SDS011;969;49.892;10.896;2023-07-29T04:24:08;1.97;;;1.57;;
1935;SDS011;969;49.892;10.896;2023-07-29T04:26:33;1.97;;;1.53;;
1935;SDS011;969;49.892;10.896;2023-07-29T04:28:59;2.07;;;1.87;;
1935;SDS011;969;49.892;10.896;2023-07-29T04:31:24;2.23;;;2.00;;
1935;SDS011;969;49.892;10.896;2023-07-29T04:33:50;2.10;;;1.60;;
1935;SDS011;969;49.892;10.896;2023-07-29T04:36:16;1.70;;;1.50;;
1935;SDS011;969;49.892;10.896;2023-07-29T04:38:42;1.90;;;1.57;;
1935;SDS011;969;49.892;10.896;2023-07-29T04:41:07;1.90;;;1.60;;
1935;SDS011;969;49.892;10.896;2023-07-29T04:43:34;1.60;;;1.20;;
1935;SDS011;969;49.892;10.896;2023-07-29T04:45:59;1.80;;;1.57;;
1935;SDS011;969;49.892;10.896;2023-07-29T04:48:25;2.20;;;1.50;;
1935;SDS011;969;49.892;10.896;2023-07-29T04:50:51;1.90;;;1.60;;
1935;SDS011;969;49.892;10.896;2023-07-29T04:53:17;3.70;;;1.60;;
1935;SDS011;969;49.892;10.896;2023-07-29T04:55:42;3.90;;;1.70;;
1935;SDS011;969;49.892;10.896;2023-07-29T04:58:08;3.07;;;1.70;;
1935;SDS011;969;49.892;10.896;2023-07-29T05:00:34;2.37;;;1.60;;
1935;SDS011;969;49.892;10.896;2023-07-29T05:02:59;1.57;;;1.40;;
1935;SDS011;969;49.892;10.896;2023-07-29T05:05:26;1.70;;;1.60;;
1935;SDS011;969;49.892;10.896;2023-07-29T05:07:52;1.57;;;1.43;;
1935;SDS011;969;49.892;10.896;2023-07-29T05:10:17;2.10;;;1.37;;
1935;SDS011;969;49.892;10.896;2023-07-29T05:12:43;1.63;;;1.53;;
1935;SDS011;969;49.892;10.896;2023-07-29T05:15:09;1.70;;;1.57;;
1935;SDS011;969;49.892;10.896;2023-07-29T05:17:35;1.70;;;1.50;;
1935;SDS011;969;49.892;10.896;2023-07-29T05:20:00;1.60;;;1.40;;
1935;SDS011;969;49.892;10.896;2023-07-29T05:22:26;1.60;;;1.50;;
1935;SDS011;969;49.892;10.896;2023-07-29T05:24:51;1.30;;;1.20;;
1935;SDS011;969;49.892;10.896;2023-07-29T05:27:17;3.17;;;1.50;;
1935;SDS011;969;49.892;10.896;2023-07-29T05:29:42;1.57;;;1.47;;
1935;SDS011;969;49.892;10.896;2023-07-29T05:32:09;2.00;;;1.77;;
1935;SDS011;969;49.892;10.896;2023-07-29T05:34:35;2.00;;;1.50;;
1935;SDS011;969;49.892;10.896;2023-07-29T05:37:00;1.70;;;1.40;;
1935;SDS011;969;49.892;10.896;2023-07-29T05:39:26;1.83;;;1.60;;
1935;SDS011;969;49.892;10.896;2023-07-29T05:41:51;1.73;;;1.60;;
1935;SDS011;969;49.892;10.896;2023-07-29T05:44:17;1.80;;;1.40;;
1935;SDS011;969;49.892;10.896;2023-07-29T05:46:43;2.83;;;2.20;;
1935;SDS011;969;49.892;10.896;2023-07-29T05:49:08;1.40;;;1.20;;
1935;SDS011;969;49.892;10.896;2023-07-29T05:51:34;1.70;;;1.60;;
1935;SDS011;969;49.892;10.896;2023-07-29T05:53:59;1.40;;;1.30;;
1935;SDS011;969;49.892;10.896;2023-07-29T05:56:25;2.03;;;1.43;;
1935;SDS011;969;49.892;10.896;2023-07-29T05:58:50;2.13;;;1.50;;
1935;SDS011;969;49.892;10.896;2023-07-29T06:01:16;1.90;;;1.60;;
1935;SDS011;969;49.892;10.896;2023-07-29T06:03:46;2.53;;;1.50;;
1935;SDS011;969;49.892;10.896;2023-07-29T06:06:11;2.10;;;1.87;;
1935;SDS011;969;49.892;10.896;2023-07-29T06:08:38;1.67;;;1.50;;
1935;SDS011;969;49.892;10.896;2023-07-29T06:11:04;1.83;;;1.50;;
1935;SDS011;969;49.892;10.896;2023-07-29T06:13:31;2.83;;;2.00;;
1935;SDS011;969;49.892;10.896;2023-07-29T06:15:57;1.73;;;1.50;;
1935;SDS011;969;49.892;10.896;2023-07-29T06:18:23;1.80;;;1.53;;
1935;SDS011;969;49.892;10.896;2023-07-29T06:20:49;3.67;;;2.00;;
1935;SDS011;969;49.892;10.896;2023-07-29T06:23:15;2.13;;;1.93;;
1935;SDS011;969;49.892;10.896;2023-07-29T06:25:42;2.00;;;1.70;;
1935;SDS011;969;49.892;10.896;2023-07-29T06:28:08;2.90;;;1.73;;
1935;SDS011;969;49.892;10.896;2023-07-29T06:30:34;2.07;;;1.87;;
1935;SDS011;969;49.892;10.896;2023-07-29T06:33:01;2.07;;;1.87;;
1935;SDS011;969;49.892;10.896;2023-07-29T06:35:28;2.30;;;1.87;;
1935;SDS011;969;49.892;10.896;2023-07-29T06:37:54;5.57;;;2.43;;
1935;SDS011;969;49.892;10.896;2023-07-29T06:40:20;2.20;;;1.73;;
1935;SDS011;969;49.892;10.896;2023-07-29T06:42:46;2.33;;;2.00;;
1935;SDS011;969;49.892;10.896;2023-07-29T06:45:13;2.30;;;2.00;;
1935;SDS011;969;49.892;10.896;2023-07-29T06:47:40;3.30;;;2.10;;
1935;SDS011;969;49.892;10.896;2023-07-29T06:50:06;1.50;;;1.40;;
1935;SDS011;969;49.892;10.896;2023-07-29T06:52:32;3.43;;;1.83;;
1935;SDS011;969;49.892;10.896;2023-07-29T06:54:58;2.33;;;2.10;;
1935;SDS011;969;49.892;10.896;2023-07-29T06:57:25;3.40;;;2.10;;
1935;SDS011;969;49.892;10.896;2023-07-29T06:59:51;2.27;;;2.00;;
1935;SDS011;969;49.892;10.896;2023-07-29T07:02:16;2.73;;;1.60;;
1935;SDS011;969;49.892;10.896;2023-07-29T07:04:42;2.10;;;1.90;;
1935;SDS011;969;49.892;10.896;2023-07-29T07:07:07;3.00;;;2.23;;
1935;SDS011;969;49.892;10.896;2023-07-29T07:09:34;2.90;;;1.97;;
1935;SDS011;969;49.892;10.896;2023-07-29T07:12:00;1.93;;;1.60;;
1935;SDS011;969;49.892;10.896;2023-07-29T07:14:25;2.27;;;1.70;;
1935;SDS011;969;49.892;10.896;2023-07-29T07:16:51;2.07;;;1.70;;
1935;SDS011;969;49.892;10.896;2023-07-29T07:19:17;2.50;;;2.07;;
1935;SDS011;969;49.892;10.896;2023-07-29T07:21:42;3.03;;;2.30;;
1935;SDS011;969;49.892;10.896;2023-07-29T07:24:08;2.10;;;1.90;;
1935;SDS011;969;49.892;10.896;2023-07-29T07:26:34;3.47;;;1.97;;
1935;SDS011;969;49.892;10.896;2023-07-29T07:29:00;2.33;;;2.00;;
1935;SDS011;969;49.892;10.896;2023-07-29T07:31:25;2.77;;;1.80;;
1935;SDS011;969;49.892;10.896;2023-07-29T07:33:51;2.87;;;2.17;;
1935;SDS011;969;49.892;10.896;2023-07-29T07:36:16;3.13;;;1.73;;
1935;SDS011;969;49.892;10.896;2023-07-29T07:38:42;2.40;;;2.10;;
1935;SDS011;969;49.892;10.896;2023-07-29T07:41:09;3.63;;;1.87;;
1935;SDS011;969;49.892;10.896;2023-07-29T07:43:34;2.80;;;1.80;;
1935;SDS011;969;49.892;10.896;2023-07-29T07:46:01;2.67;;;1.70;;
1935;SDS011;969;49.892;10.896;2023-07-29T07:48:27;2.90;;;1.80;;
1935;SDS011;969;49.892;10.896;2023-07-29T07:50:53;1.83;;;1.63;;
1935;SDS011;969;49.892;10.896;2023-07-29T07:53:18;3.03;;;1.80;;
1935;SDS011;969;49.892;10.896;2023-07-29T07:55:45;2.27;;;2.03;;
1935;SDS011;969;49.892;10.896;2023-07-29T07:58:10;2.70;;;2.50;;
1935;SDS011;969;49.892;10.896;2023-07-29T08:00:36;3.37;;;2.87;;
1935;SDS011;969;49.892;10.896;2023-07-29T08:03:01;3.37;;;2.83;;
1935;SDS011;969;49.892;10.896;2023-07-29T08:05:27;4.33;;;3.10;;
1935;SDS011;969;49.892;10.896;2023-07-29T08:07:53;4.53;;;4.13;;
1935;SDS011;969;49.892;10.896;2023-07-29T08:10:19;4.27;;;3.27;;
1935;SDS011;969;49.892;10.896;2023-07-29T08:12:44;5.07;;;4.13;;
1935;SDS011;969;49.892;10.896;2023-07-29T08:15:10;4.67;;;3.97;;
1935;SDS011;969;49.892;10.896;2023-07-29T08:17:35;5.20;;;3.93;;
1935;SDS011;969;49.892;10.896;2023-07-29T08:20:01;4.47;;;3.93;;
1935;SDS011;969;49.892;10.896;2023-07-29T08:22:26;6.70;;;4.20;;
1935;SDS011;969;49.892;10.896;2023-07-29T08:24:52;5.83;;;4.33;;
1935;SDS011;969;49.892;10.896;2023-07-29T08:27:17;6.27;;;4.20;;
1935;SDS011;969;49.892;10.896;2023-07-29T08:29:43;5.30;;;4.77;;
1935;SDS011;969;49.892;10.896;2023-07-29T08:32:09;5.00;;;3.80;;
1935;SDS011;969;49.892;10.896;2023-07-29T08:34:34;4.23;;;3.70;;
1935;SDS011;969;49.892;10.896;2023-07-29T08:37:01;4.87;;;3.63;;
1935;SDS011;969;49.892;10.896;2023-07-29T08:39:26;5.47;;;3.97;;
1935;SDS011;969;49.892;10.896;2023-07-29T08:42:07;4.57;;;3.73;;
1935;SDS011;969;49.892;10.896;2023-07-29T08:44:36;3.53;;;2.93;;
1935;SDS011;969;49.892;10.896;2023-07-29T08:47:06;4.20;;;3.27;;
1935;SDS011;969;49.892;10.896;2023-07-29T08:49:32;5.43;;;2.90;;
1935;SDS011;969;49.892;10.896;2023-07-29T08:51:58;3.90;;;3.10;;
1935;SDS011;969;49.892;10.896;2023-07-29T08:54:26;4.73;;;3.20;;
1935;SDS011;969;49.892;10.896;2023-07-29T08:56:51;3.73;;;2.83;;
1935;SDS011;969;49.892;10.896;2023-07-29T08:59:17;3.70;;;3.00;;
1935;SDS011;969;49.892;10.896;2023-07-29T09:01:44;3.93;;;2.93;;
1935;SDS011;969;49.892;10.896;2023-07-29T09:04:10;5.37;;;3.07;;
1935;SDS011;969;49.892;10.896;2023-07-29T09:06:36;6.37;;;3.00;;
1935;SDS011;969;49.892;10.896;2023-07-29T09:09:04;5.83;;;3.33;;
1935;SDS011;969;49.892;10.896;2023-07-29T09:11:30;3.27;;;2.83;;
1935;SDS011;969;49.892;10.896;2023-07-29T09:13:57;4.97;;;2.80;;
1935;SDS011;969;49.892;10.896;2023-07-29T09:16:23;3.30;;;2.23;;
1935;SDS011;969;49.892;10.896;2023-07-29T09:18:50;3.07;;;2.47;;
1935;SDS011;969;49.892;10.896;2023-07-29T09:21:17;2.70;;;2.50;;
1935;SDS011;969;49.892;10.896;2023-07-29T09:23:54;3.00;;;2.70;;
1935;SDS011;969;49.892;10.896;2023-07-29T09:26:26;2.37;;;2.10;;
1935;SDS011;969;49.892;10.896;2023-07-29T09:28:53;3.60;;;2.57;;
1935;SDS011;969;49.892;10.896;2023-07-29T09:31:21;5.03;;;3.00;;
1935;SDS011;969;49.892;10.896;2023-07-29T09:33:48;2.83;;;2.50;;
1935;SDS011;969;49.892;10.896;2023-07-29T09:36:14;3.00;;;1.80;;
1935;SDS011;969;49.892;10.896;2023-07-29T09:38:40;3.00;;;2.07;;
1935;SDS011;969;49.892;10.896;2023-07-29T09:41:06;3.83;;;2.33;;
1935;SDS011;969;49.892;10.896;2023-07-29T09:43:34;4.03;;;2.50;;
1935;SDS011;969;49.892;10.896;2023-07-29T09:46:01;4.20;;;2.53;;
1935;SDS011;969;49.892;10.896;2023-07-29T09:48:34;2.53;;;2.33;;
1935;SDS011;969;49.892;10.896;2023-07-29T09:51:12;2.40;;;1.90;;
1935;SDS011;969;49.892;10.896;2023-07-29T09:53:39;3.10;;;2.47;;
1935;SDS011;969;49.892;10.896;2023-07-29T09:56:08;2.90;;;2.40;;
1935;SDS011;969;49.892;10.896;2023-07-29T09:58:35;4.13;;;2.43;;
1935;SDS011;969;49.892;10.896;2023-07-29T10:01:02;3.03;;;2.00;;
1935;SDS011;969;49.892;10.896;2023-07-29T10:03:31;5.20;;;2.40;;
1935;SDS011;969;49.892;10.896;2023-07-29T10:05:59;3.50;;;3.20;;
1935;SDS011;969;49.892;10.896;2023-07-29T10:08:29;4.03;;;2.40;;
1935;SDS011;969;49.892;10.896;2023-07-29T10:10:57;3.17;;;2.20;;
1935;SDS011;969;49.892;10.896;2023-07-29T10:13:25;3.80;;;2.77;;
1935;SDS011;969;49.892;10.896;2023-07-29T10:15:53;3.10;;;2.80;;
1935;SDS011;969;49.892;10.896;2023-07-29T10:18:21;2.33;;;2.13;;
1935;SDS011;969;49.892;10.896;2023-07-29T10:20:48;5.13;;;1.97;;
1935;SDS011;969;49.892;10.896;2023-07-29T10:23:16;2.10;;;1.90;;
1935;SDS011;969;49.892;10.896;2023-07-29T10:25:43;2.90;;;2.33;;
1935;SDS011;969;49.892;10.896;2023-07-29T10:28:15;3.63;;;2.07;;
1935;SDS011;969;49.892;10.896;2023-07-29T10:30:43;2.97;;;1.93;;
1935;SDS011;969;49.892;10.896;2023-07-29T10:33:11;2.10;;;1.70;;
1935;SDS011;969;49.892;10.896;2023-07-29T10:35:39;2.20;;;1.90;;
1935;SDS011;969;49.892;10.896;2023-07-29T10:38:06;3.43;;;2.20;;
1935;SDS011;969;49.892;10.896;2023-07-29T10:40:50;2.43;;;2.03;;
1935;SDS011;969;49.892;10.896;2023-07-29T10:43:25;3.77;;;2.00;;
1935;SDS011;969;49.892;10.896;2023-07-29T10:46:21;3.73;;;1.60;;
1935;SDS011;969;49.892;10.896;2023-07-29T10:54:04;2.20;;;1.70;;
1935;SDS011;969;49.892;10.896;2023-07-29T10:56:36;2.70;;;1.60;;
1935;SDS011;969;49.892;10.896;2023-07-29T11:01:41;1.77;;;1.40;;
1935;SDS011;969;49.892;10.896;2023-07-29T11:17:49;2.27;;;1.60;;
1935;SDS011;969;49.892;10.896;2023-07-29T11:20:18;2.07;;;1.80;;
1935;SDS011;969;49.892;10.896;2023-07-29T11:22:45;2.70;;;2.00;;
1935;SDS011;969;49.892;10.896;2023-07-29T11:25:12;1.50;;;1.30;;
1935;SDS011;969;49.892;10.896;2023-07-29T11:27:39;3.03;;;1.80;;
1935;SDS011;969;49.892;10.896;2023-07-29T11:30:08;2.10;;;1.70;;
1935;SDS011;969;49.892;10.896;2023-07-29T11:32:36;1.90;;;1.57;;
1935;SDS011;969;49.892;10.896;2023-07-29T11:35:08;2.53;;;1.67;;
1935;SDS011;969;49.892;10.896;2023-07-29T11:37:36;2.00;;;1.47;;
1935;SDS011;969;49.892;10.896;2023-07-29T11:40:03;2.53;;;1.40;;
1935;SDS011;969;49.892;10.896;2023-07-29T11:42:33;1.70;;;1.50;;
1935;SDS011;969;49.892;10.896;2023-07-29T11:45:00;1.50;;;1.33;;
1935;SDS011;969;49.892;10.896;2023-07-29T11:47:31;1.77;;;1.40;;
1935;SDS011;969;49.892;10.896;2023-07-29T11:50:03;2.10;;;1.73;;
1935;SDS011;969;49.892;10.896;2023-07-29T11:52:31;3.63;;;1.60;;
1935;SDS011;969;49.892;10.896;2023-07-29T11:55:01;2.00;;;1.50;;
1935;SDS011;969;49.892;10.896;2023-07-29T11:57:28;2.67;;;2.00;;
1935;SDS011;969;49.892;10.896;2023-07-29T11:59:59;2.57;;;1.50;;
1935;SDS011;969;49.892;10.896;2023-07-29T12:02:28;1.70;;;1.37;;
1935;SDS011;969;49.892;10.896;2023-07-29T12:04:54;1.53;;;1.43;;
1935;SDS011;969;49.892;10.896;2023-07-29T12:07:22;1.57;;;1.47;;
1935;SDS011;969;49.892;10.896;2023-07-29T12:09:48;2.17;;;1.63;;
1935;SDS011;969;49.892;10.896;2023-07-29T12:12:15;2.00;;;1.43;;
1935;SDS011;969;49.892;10.896;2023-07-29T12:14:47;1.70;;;1.30;;
1935;SDS011;969;49.892;10.896;2023-07-29T12:17:13;2.40;;;1.87;;
1935;SDS011;969;49.892;10.896;2023-07-29T12:19:39;2.60;;;1.70;;
1935;SDS011;969;49.892;10.896;2023-07-29T12:22:06;2.07;;;1.77;;
1935;SDS011;969;49.892;10.896;2023-07-29T12:24:33;1.60;;;1.43;;
1935;SDS011;969;49.892;10.896;2023-07-29T12:27:00;1.83;;;1.50;;
1935;SDS011;969;49.892;10.896;2023-07-29T12:29:26;1.60;;;1.40;;
1935;SDS011;969;49.892;10.896;2023-07-29T12:32:02;1.87;;;1.73;;
1935;SDS011;969;49.892;10.896;2023-07-29T12:34:29;1.73;;;1.50;;
1935;SDS011;969;49.892;10.896;2023-07-29T12:36:58;2.37;;;1.50;;
1935;SDS011;969;49.892;10.896;2023-07-29T12:39:43;1.87;;;1.53;;
1935;SDS011;969;49.892;10.896;2023-07-29T12:42:08;2.27;;;1.73;;
1935;SDS011;969;49.892;10.896;2023-07-29T12:44:36;1.83;;;1.40;;
1935;SDS011;969;49.892;10.896;2023-07-29T12:47:03;2.80;;;1.53;;
1935;SDS011;969;49.892;10.896;2023-07-29T12:49:31;1.67;;;1.47;;
1935;SDS011;969;49.892;10.896;2023-07-29T12:51:57;1.70;;;1.50;;
1935;SDS011;969;49.892;10.896;2023-07-29T12:54:27;1.70;;;1.40;;
1935;SDS011;969;49.892;10.896;2023-07-29T12:56:52;1.60;;;1.27;;
1935;SDS011;969;49.892;10.896;2023-07-29T12:59:18;1.80;;;1.50;;
1935;SDS011;969;49.892;10.896;2023-07-29T13:01:44;1.80;;;1.40;;
1935;SDS011;969;49.892;10.896;2023-07-29T13:04:12;1.73;;;1.47;;
1935;SDS011;969;49.892;10.896;2023-07-29T13:06:38;1.90;;;1.50;;
1935;SDS011;969;49.892;10.896;2023-07-29T13:09:04;1.80;;;1.40;;
1935;SDS011;969;49.892;10.896;2023-07-29T13:11:30;1.30;;;1.20;;
1935;SDS011;969;49.892;10.896;2023-07-29T13:13:57;1.97;;;1.60;;
1935;SDS011;969;49.892;10.896;2023-07-29T13:16:23;1.90;;;1.30;;
1935;SDS011;969;49.892;10.896;2023-07-29T13:18:49;1.60;;;1.40;;
1935;SDS011;969;49.892;10.896;2023-07-29T13:21:15;3.07;;;1.53;;
1935;SDS011;969;49.892;10.896;2023-07-29T13:23:41;1.70;;;1.60;;
1935;SDS011;969;49.892;10.896;2023-07-29T13:26:07;1.90;;;1.60;;
1935;SDS011;969;49.892;10.896;2023-07-29T13:28:32;1.30;;;1.20;;
1935;SDS011;969;49.892;10.896;2023-07-29T13:30:58;1.50;;;1.40;;
1935;SDS011;969;49.892;10.896;2023-07-29T13:33:24;1.83;;;1.73;;
1935;SDS011;969;49.892;10.896;2023-07-29T13:35:49;2.00;;;1.80;;
1935;SDS011;969;49.892;10.896;2023-07-29T13:38:15;2.10;;;1.80;;
1935;SDS011;969;49.892;10.896;2023-07-29T13:40:41;3.70;;;2.20;;
1935;SDS011;969;49.892;10.896;2023-07-29T13:43:06;2.03;;;1.67;;
1935;SDS011;969;49.892;10.896;2023-07-29T13:45:34;2.50;;;1.70;;
1935;SDS011;969;49.892;10.896;2023-07-29T13:47:59;2.10;;;1.50;;
1935;SDS011;969;49.892;10.896;2023-07-29T13:50:26;4.00;;;1.47;;
1935;SDS011;969;49.892;10.896;2023-07-29T13:52:51;2.20;;;1.80;;
1935;SDS011;969;49.892;10.896;2023-07-29T13:55:17;1.57;;;1.37;;
1935;SDS011;969;49.892;10.896;2023-07-29T13:57:42;1.50;;;1.40;;
1935;SDS011;969;49.892;10.896;2023-07-29T14:00:08;1.70;;;1.60;;
1935;SDS011;969;49.892;10.896;2023-07-29T14:02:34;2.13;;;1.50;;
1935;SDS011;969;49.892;10.896;2023-07-29T14:04:59;1.70;;;1.40;;
1935;SDS011;969;49.892;10.896;2023-07-29T14:07:25;1.83;;;1.60;;
1935;SDS011;969;49.892;10.896;2023-07-29T14:09:50;1.97;;;1.50;;
1935;SDS011;969;49.892;10.896;2023-07-29T14:12:16;2.37;;;1.60;;
1935;SDS011;969;49.892;10.896;2023-07-29T14:14:42;2.10;;;1.80;;
1935;SDS011;969;49.892;10.896;2023-07-29T14:17:08;2.20;;;1.77;;
1935;SDS011;969;49.892;10.896;2023-07-29T14:19:34;2.97;;;1.73;;
1935;SDS011;969;49.892;10.896;2023-07-29T14:22:00;1.63;;;1.53;;
1935;SDS011;969;49.892;10.896;2023-07-29T14:24:26;2.10;;;1.70;;
1935;SDS011;969;49.892;10.896;2023-07-29T14:26:53;1.77;;;1.60;;
1935;SDS011;969;49.892;10.896;2023-07-29T14:29:19;2.47;;;1.80;;
1935;SDS011;969;49.892;10.896;2023-07-29T14:31:44;2.27;;;1.47;;
1935;SDS011;969;49.892;10.896;2023-07-29T14:34:10;3.07;;;1.70;;
1935;SDS011;969;49.892;10.896;2023-07-29T14:36:36;1.60;;;1.40;;
1935;SDS011;969;49.892;10.896;2023-07-29T14:39:02;2.00;;;1.70;;
1935;SDS011;969;49.892;10.896;2023-07-29T14:41:28;1.93;;;1.47;;
1935;SDS011;969;49.892;10.896;2023-07-29T14:43:54;2.57;;;2.10;;
1935;SDS011;969;49.892;10.896;2023-07-29T14:46:20;1.40;;;1.30;;
1935;SDS011;969;49.892;10.896;2023-07-29T14:48:45;2.40;;;1.77;;
1935;SDS011;969;49.892;10.896;2023-07-29T14:51:12;3.33;;;1.63;;
1935;SDS011;969;49.892;10.896;2023-07-29T14:53:38;2.63;;;1.80;;
1935;SDS011;969;49.892;10.896;2023-07-29T14:56:03;3.00;;;1.60;;
1935;SDS011;969;49.892;10.896;2023-07-29T14:58:29;3.00;;;1.60;;
1935;SDS011;969;49.892;10.896;2023-07-29T15:00:55;1.87;;;1.40;;
1935;SDS011;969;49.892;10.896;2023-07-29T15:03:21;2.43;;;1.60;;
1935;SDS011;969;49.892;10.896;2023-07-29T15:05:47;1.60;;;1.37;;
1935;SDS011;969;49.892;10.896;2023-07-29T15:08:14;1.97;;;1.70;;
1935;SDS011;969;49.892;10.896;2023-07-29T15:10:40;2.17;;;1.50;;
1935;SDS011;969;49.892;10.896;2023-07-29T15:13:06;2.00;;;1.70;;
1935;SDS011;969;49.892;10.896;2023-07-29T15:15:32;1.70;;;1.37;;
1935;SDS011;969;49.892;10.896;2023-07-29T15:17:57;2.00;;;1.63;;
1935;SDS011;969;49.892;10.896;2023-07-29T15:20:24;1.57;;;1.40;;
1935;SDS011;969;49.892;10.896;2023-07-29T15:22:51;1.73;;;1.60;;
1935;SDS011;969;49.892;10.896;2023-07-29T15:25:17;1.60;;;1.40;;
1935;SDS011;969;49.892;10.896;2023-07-29T15:27:42;1.47;;;1.23;;
1935;SDS011;969;49.892;10.896;2023-07-29T15:30:08;2.37;;;1.50;;
1935;SDS011;969;49.892;10.896;2023-07-29T15:32:34;2.50;;;1.40;;
1935;SDS011;969;49.892;10.896;2023-07-29T15:34:59;1.33;;;1.20;;
1935;SDS011;969;49.892;10.896;2023-07-29T15:37:25;2.90;;;1.93;;
1935;SDS011;969;49.892;10.896;2023-07-29T15:39:51;2.10;;;1.37;;
1935;SDS011;969;49.892;10.896;2023-07-29T15:42:17;1.50;;;1.30;;